Terminal Aerodrome Forecast
Issued by NWS Sterling, VA

Current Version | Previous Version | Text Only | Print | Product List | Glossary Off
Versions: 1 2 3 4 5 6 7 8 9 10 11 12 13 14 15 16 17

000
FTUS41 KLWX 282104 AAA
TAFMRB
TAF AMD
KMRB 282104Z 2821/2918 09008KT 5SM -RA OVC015
     FM282300 08008KT 3SM -SHRA OVC010
     FM290000 08008KT 1 1/2SM SHRA OVC008=

USA.gov is the U.S. government's official web portal to all federal, state and local government web resources and services.